Allin, Illinois
Current Conditions -  °F | °C
As of 12:56 PM on Friday 24 Oct 2014 (Local Time) from KBMI Reporting Station
Clear Clear  
Wind Chill: 67°   Ceiling: Unl
Heat Index: 67°   Visibility: 10mi
Dew Point: 52°   Wind: 8mph
Humidity: 59%   Direction: 230°SW
Pressure: 30.06"   Gusts: NA
Location:  40.4427°N, 89.2086°W
Report Text: KBMI 241756Z 23007KT 10SM CLR 19/11 A3006 RMK AO2 58013 T01940111 10194 20072 SLP177
Loading
Personal Weather Stations






























Interactive Weather Map
Tropical Storm Tracking
New forecast layout! Learn more

10-Day Weather Forecast

Advertisements
Track Severe Weather on mobile